Latest Coastal Weather Observations for Lake Macquarie - Cooranbong

IDN60701

Issued at 5:01 pm EDT Sunday 11 December 2016 (issued every 10 minutes, with the page automatically refreshed every 10 minutes)

About coastal observations | Map of coastal stations | Coastal observations for NSW | Marine services | Other Formats
Station Details ID: 061412 Name: LAKE MACQUARIE AWS Lat: -33.09 Lon: 151.46 Height: 6.0 m
Data from the previous 72 hours. | See also: Recent months at Lake Macquarie - Cooranbong
Date/Time
EDT
Temp
°C
Wind Pressure Rain since
9am
mm
Weather Cloud Vis
km
Sea
Height
m
Swell
Dir  Spd
kts
Gust
kts
hPa Trend Height
m
Period
s
Dir
11/04:30pm 25.5 ESE 8 13 1018.8 - 0.0 - - - - - - -
11/04:00pm 26.1 ESE 11 16 1018.9 - 0.0 - - - - - - -
11/03:30pm 25.7 ESE 9 13 1019.3 - 0.0 - - - - - - -
11/03:00pm 26.1 E 8 15 1019.5 - 0.0 - - - - - - -
11/02:30pm 25.6 E 7 13 1019.7 - 0.0 - - - - - - -
11/02:00pm 26.2 E 8 13 1020.0 - 0.0 - - - - - - -
11/01:30pm 25.1 ESE 10 14 1020.1 - 0.0 - - - - - - -
11/01:00pm 25.7 ESE 9 14 1020.3 - 0.0 - - - - - - -
11/12:30pm 25.9 ESE 7 12 1020.5 - 0.0 - - - - - - -
11/12:00pm 25.5 ENE 6 10 1020.6 - 0.0 - - - - - - -
11/11:30am 24.8 ESE 5 10 1021.0 - 0.0 - - - - - - -
11/11:00am 24.3 WSW 3 5 1021.3 - 0.0 - - - - - - -
11/10:30am 23.1 SSW 1 3 1021.8 - 0.0 - - - - - - -
11/10:00am 22.5 NNW 2 6 1021.8 - 0.0 - - - - - - -
11/09:30am 22.5 ESE 2 5 1021.9 - 0.0 - - - - - - -
11/09:00am 21.8 NE 3 6 1021.9 - 0.0 - - - - - - -
11/08:30am 21.2 NE 1 3 1022.2 - 0.0 - - - - - - -
11/08:00am 19.5 CALM 0 0 1022.0 - 0.0 - - - - - - -
11/07:30am 17.2 CALM 0 0 1021.6 - 0.0 - - - - - - -
11/07:00am 15.5 CALM 0 0 1021.3 - 0.0 - - - - - - -
11/06:30am 13.4 NNE 1 2 1021.0 - 0.0 - - - - - - -
11/06:00am 12.9 CALM 0 0 1020.7 - 0.0 - - - - - - -
11/05:30am 12.9 CALM 0 0 1020.4 - 0.0 - - - - - - -
11/05:00am 12.8 CALM 0 0 1020.2 - 0.0 - - - - - - -
11/04:30am 13.3 CALM 0 0 1020.0 - 0.0 - - - - - - -
11/04:00am 13.3 CALM 0 0 1019.8 - 0.0 - - - - - - -
11/03:30am 13.6 CALM 0 0 1019.8 - 0.0 - - - - - - -
11/03:00am 13.8 CALM 0 0 1019.8 - 0.0 - - - - - - -
11/02:30am 14.0 CALM 0 0 1020.1 - 0.0 - - - - - - -
11/02:00am 14.1 CALM 0 0 1020.3 - 0.0 - - - - - - -
11/01:30am 14.4 CALM 0 0 1020.6 - 0.0 - - - - - - -
11/01:00am 14.7 CALM 0 0 1020.8 - 0.0 - - - - - - -
11/12:30am 15.0 CALM 0 0 1021.0 - 0.0 - - - - - - -
11/12:00am 15.6 CALM 0 0 1021.1 - 0.0 - - - - - - -
 
Date/Time
EDT
Temp
°C
Wind Pressure Rain since
9am
mm
Weather Cloud Vis
km
Sea
Height
m
Swell
Dir  Spd
kts
Gust
kts
hPa Trend Height
m
Period
s
Dir
10/11:30pm 16.2 CALM 0 0 1021.1 - 0.0 - - - - - - -
10/11:00pm 17.7 CALM 0 0 1021.1 - 0.0 - - - - - - -
10/10:30pm 18.9 NE 2 7 1021.3 - 0.0 - - - - - - -
10/10:00pm 19.3 NE 2 7 1021.3 - 0.0 - - - - - - -
10/09:30pm 19.4 ENE 2 6 1021.2 - 0.0 - - - - - - -
10/09:00pm 19.4 NE 3 6 1021.0 - 0.0 - - - - - - -
10/08:30pm 19.6 ENE 3 5 1020.9 - 0.0 - - - - - - -
10/08:00pm 19.9 ENE 3 7 1020.6 - 0.0 - - - - - - -
10/07:30pm 20.5 ENE 4 9 1020.2 - 0.0 - - - - - - -
10/07:00pm 21.2 ENE 4 9 1020.0 - 0.0 - - - - - - -
10/06:30pm 21.5 ENE 5 10 1019.8 - 0.0 - - - - - - -
10/06:00pm 21.9 E 7 16 1019.5 - 0.0 - - - - - - -
10/05:30pm 21.6 E 9 15 1019.6 - 0.0 - - - - - - -
10/05:00pm 22.4 E 8 15 1019.7 - 0.0 - - - - - - -
10/04:30pm 21.9 E 9 17 1019.8 - 0.0 - - - - - - -
10/04:00pm 22.4 E 9 14 1020.1 - 0.0 - - - - - - -
10/03:30pm 22.6 E 9 16 1020.3 - 0.0 - - - - - - -
10/03:00pm 22.5 E 9 17 1020.7 - 0.0 - - - - - - -
10/02:30pm 22.9 E 9 15 1020.9 - 0.0 - - - - - - -
10/02:00pm 23.1 ENE 7 12 1021.0 - 0.0 - - - - - - -
10/01:30pm 22.8 E 8 15 1021.3 - 0.0 - - - - - - -
10/01:00pm 23.5 ENE 6 10 1021.6 - 0.0 - - - - - - -
10/12:30pm 22.7 E 7 13 1021.7 - 0.0 - - - - - - -
10/12:00pm 22.5 E 6 9 1022.1 - 0.0 - - - - - - -
10/11:30am 22.4 E 7 11 1022.4 - 0.0 - - - - - - -
10/11:00am 22.1 E 5 8 1022.7 - 0.0 - - - - - - -
10/10:30am 20.8 E 4 7 1022.7 - 0.0 - - - - - - -
10/10:00am 20.4 NE 2 6 1022.8 - 0.0 - - - - - - -
10/09:30am 19.9 E 3 7 1022.9 - 0.0 - - - - - - -
10/09:00am 19.6 NNE 1 3 1023.0 - 0.0 - - - - - - -
10/08:30am 18.1 N 1 2 1022.8 - 0.0 - - - - - - -
10/08:00am 17.1 NNW 1 2 1022.8 - 0.0 - - - - - - -
10/07:30am 16.2 CALM 0 3 1022.4 - 0.0 - - - - - - -
10/07:00am 15.8 NW 1 3 1021.9 - 0.0 - - - - - - -
10/06:30am 15.1 CALM 0 0 1021.4 - 0.0 - - - - - - -
10/06:00am 15.1 CALM 0 0 1021.0 - 0.0 - - - - - - -
10/05:30am 15.3 CALM 0 0 1020.7 - 0.0 - - - - - - -
10/05:00am 15.5 CALM 0 0 1020.3 - 0.0 - - - - - - -
10/04:30am 16.3 WSW 1 2 1020.0 - 0.0 - - - - - - -
10/04:00am 16.8 NW 2 3 1019.7 - 0.0 - - - - - - -
10/03:30am 16.4 WSW 1 2 1019.4 - 0.0 - - - - - - -
10/03:00am 16.4 NW 1 3 1019.2 - 0.0 - - - - - - -
10/02:30am 16.4 CALM 0 0 1019.1 - 0.0 - - - - - - -
10/02:00am 17.5 CALM 0 0 1019.2 - 0.0 - - - - - - -
10/01:30am 18.3 CALM 0 0 1019.2 - 0.0 - - - - - - -
10/01:00am 18.7 CALM 0 1 1019.2 - 0.0 - - - - - - -
10/12:30am 18.8 ESE 1 3 1019.2 - 0.0 - - - - - - -
10/12:00am 19.1 ESE 4 7 1019.0 - 0.0 - - - - - - -
 
Date/Time
EDT
Temp
°C
Wind Pressure Rain since
9am
mm
Weather Cloud Vis
km
Sea
Height
m
Swell
Dir  Spd
kts
Gust
kts
hPa Trend Height
m
Period
s
Dir
09/11:30pm 18.8 CALM 0 0 1018.8 - 0.0 - - - - - - -
09/11:00pm 18.8 SSE 1 4 1018.5 - 0.0 - - - - - - -
09/10:30pm 18.0 CALM 0 1 1018.2 - 0.0 - - - - - - -
09/10:00pm 17.9 CALM 0 0 1017.8 - 0.0 - - - - - - -
09/09:30pm 17.8 CALM 0 0 1017.3 - 0.0 - - - - - - -
09/09:00pm 18.4 CALM 0 1 1016.9 - 0.0 - - - - - - -
09/08:30pm 18.9 SSE 1 2 1016.3 - 0.0 - - - - - - -
09/08:00pm 19.9 SSE 2 7 1015.8 - 0.0 - - - - - - -
09/07:30pm 20.6 SE 4 7 1015.0 - 0.0 - - - - - - -
09/07:00pm 21.5 SE 5 8 1014.0 - 0.0 - - - - - - -
09/06:30pm 22.3 SE 6 10 1013.1 - 0.0 - - - - - - -
09/06:00pm 22.8 SE 7 13 1012.1 - 0.0 - - - - - - -
09/05:30pm 27.4 WSW 4 6 1010.8 - 0.0 - - - - - - -
09/05:00pm 27.1 W 7 16 1010.5 - 0.0 - - - - - - -
09/04:30pm 27.1 WSW 7 15 1010.1 - 0.0 - - - - - - -
09/04:00pm 27.0 WSW 7 17 1010.0 - 0.0 - - - - - - -
09/03:30pm 26.9 WSW 10 19 1010.1 - 0.0 - - - - - - -
09/03:00pm 26.8 W 8 17 1009.8 - 0.0 - - - - - - -
09/02:30pm 26.2 SW 6 12 1009.8 - 0.0 - - - - - - -
09/02:00pm 26.0 W 10 19 1010.0 - 0.0 - - - - - - -
09/01:30pm 25.4 WSW 9 17 1010.1 - 0.0 - - - - - - -
09/01:00pm 25.1 WNW 8 17 1010.2 - 0.0 - - - - - - -
09/12:30pm 24.5 WSW 11 19 1010.3 - 0.0 - - - - - - -
09/12:00pm 24.4 W 9 19 1010.2 - 0.0 - - - - - - -
09/11:30am 23.8 WSW 8 15 1010.0 - 0.0 - - - - - - -
09/11:00am 23.2 W 8 16 1009.7 - 0.0 - - - - - - -
09/10:30am 22.7 W 9 17 1009.8 - 0.0 - - - - - - -
09/10:00am 22.0 W 9 16 1009.6 - 0.0 - - - - - - -
09/09:30am 21.3 WSW 8 16 1009.6 - 0.0 - - - - - - -
09/09:00am 20.9 W 9 14 1009.6 - 0.0 - - - - - - -
09/08:30am 20.6 WSW 7 18 1009.5 - 0.0 - - - - - - -
09/08:00am 20.4 W 8 13 1009.0 - 0.0 - - - - - - -
09/07:30am 20.2 W 6 12 1008.6 - 0.0 - - - - - - -
09/07:00am 20.1 WSW 3 5 1008.2 - 0.0 - - - - - - -
09/06:30am 19.0 WNW 3 6 1007.6 - 0.0 - - - - - - -
09/06:00am 18.5 WSW 2 4 1006.8 - 0.0 - - - - - - -
09/05:30am 19.4 SW 5 12 1005.9 - 0.0 - - - - - - -
09/05:00am 19.9 SW 4 8 1005.2 - 0.0 - - - - - - -
09/04:30am 20.8 WSW 6 12 1004.4 - 0.0 - - - - - - -
09/04:00am 21.8 WSW 5 11 1003.3 - 0.0 - - - - - - -
09/03:30am 22.7 SW 5 11 1002.7 - 0.0 - - - - - - -
09/03:00am 24.4 W 8 14 1001.7 - 0.0 - - - - - - -
09/02:30am 25.2 WSW 4 9 1001.2 - 0.0 - - - - - - -
09/02:00am 25.6 W 5 10 1001.0 - 0.0 - - - - - - -
09/01:30am 25.2 W 4 7 1000.8 - 0.0 - - - - - - -
09/01:00am 24.0 N 3 4 1000.3 - 0.0 - - - - - - -
09/12:30am 25.4 NW 2 3 999.8 - 0.0 - - - - - - -
09/12:00am 26.1 N 2 4 999.2 - 0.0 - - - - - - -
 
Date/Time
EDT
Temp
°C
Wind Pressure Rain since
9am
mm
Weather Cloud Vis
km
Sea
Height
m
Swell
Dir  Spd
kts
Gust
kts
hPa Trend Height
m
Period
s
Dir
08/11:30pm 27.3 W 4 9 999.7 - 0.0 - - - - - - -
08/11:00pm 28.5 WNW 7 15 1000.0 - 0.0 - - - - - - -
08/10:30pm 27.2 W 1 3 999.0 - 0.0 - - - - - - -
08/10:00pm 27.4 NNW 3 4 997.4 - 0.0 - - - - - - -
08/09:30pm 27.5 NNE 3 5 997.5 - 0.0 - - - - - - -
08/09:00pm 28.2 NE 3 7 997.3 - 0.0 - - - - - - -
08/08:30pm 28.6 NE 4 11 997.1 - 0.0 - - - - - - -
08/08:00pm 29.3 NE 4 8 997.0 - 0.0 - - - - - - -
08/07:30pm 30.0 NNE 5 11 996.9 - 0.0 - - - - - - -
08/07:00pm 30.6 NNE 6 13 997.1 - 0.0 - - - - - - -
08/06:30pm 31.0 NE 7 12 997.0 - 0.0 - - - - - - -
08/06:00pm 31.0 NE 7 15 996.9 - 0.0 - - - - - - -
08/05:30pm 32.4 NE 7 16 996.8 - 0.0 - - - - - - -

Other Formats:

Comma delimited format used in spreadsheet applications
http://www.bom.gov.au/fwo/IDN60701/IDN60701.95767.axf

JavaScript Object Notation format (JSON) in row-major order
http://www.bom.gov.au/fwo/IDN60701/IDN60701.95767.json